sensor_id;sensor_type;location;lat;lon;timestamp;temperature;humidity
42365;DHT22;28498;54.400;18.566;2024-02-04T00:00:27;5.50;99.90
42365;DHT22;28498;54.400;18.566;2024-02-04T00:02:54;5.50;99.90
42365;DHT22;28498;54.400;18.566;2024-02-04T00:05:21;5.60;99.90
42365;DHT22;28498;54.400;18.566;2024-02-04T00:07:48;5.60;99.90
42365;DHT22;28498;54.400;18.566;2024-02-04T00:10:15;5.70;99.90
42365;DHT22;28498;54.400;18.566;2024-02-04T00:12:44;5.70;99.90
42365;DHT22;28498;54.400;18.566;2024-02-04T00:15:11;5.60;99.90
42365;DHT22;28498;54.400;18.566;2024-02-04T00:17:38;5.70;99.90
42365;DHT22;28498;54.400;18.566;2024-02-04T00:20:06;5.70;99.90
42365;DHT22;28498;54.400;18.566;2024-02-04T00:22:34;5.60;99.90
42365;DHT22;28498;54.400;18.566;2024-02-04T00:25:01;5.60;99.90
42365;DHT22;28498;54.400;18.566;2024-02-04T00:27:32;5.60;99.90
42365;DHT22;28498;54.400;18.566;2024-02-04T00:30:00;5.60;99.90
42365;DHT22;28498;54.400;18.566;2024-02-04T00:32:27;5.60;99.90
42365;DHT22;28498;54.400;18.566;2024-02-04T00:34:54;5.50;99.90
42365;DHT22;28498;54.400;18.566;2024-02-04T00:37:21;5.50;99.90
42365;DHT22;28498;54.400;18.566;2024-02-04T00:39:49;5.50;99.90
42365;DHT22;28498;54.400;18.566;2024-02-04T00:42:16;5.50;99.90
42365;DHT22;28498;54.400;18.566;2024-02-04T00:44:43;5.50;99.90
42365;DHT22;28498;54.400;18.566;2024-02-04T00:47:10;5.50;99.90
42365;DHT22;28498;54.400;18.566;2024-02-04T00:49:37;5.50;99.90
42365;DHT22;28498;54.400;18.566;2024-02-04T00:52:04;5.50;99.90
42365;DHT22;28498;54.400;18.566;2024-02-04T00:54:32;5.40;99.90
42365;DHT22;28498;54.400;18.566;2024-02-04T00:56:59;5.50;99.90
42365;DHT22;28498;54.400;18.566;2024-02-04T00:59:26;5.40;99.90
42365;DHT22;28498;54.400;18.566;2024-02-04T01:01:53;5.50;99.90
42365;DHT22;28498;54.400;18.566;2024-02-04T01:04:22;5.40;99.90
42365;DHT22;28498;54.400;18.566;2024-02-04T01:06:50;5.50;99.90
42365;DHT22;28498;54.400;18.566;2024-02-04T01:09:28;5.40;99.90
42365;DHT22;28498;54.400;18.566;2024-02-04T01:11:56;5.50;99.90
42365;DHT22;28498;54.400;18.566;2024-02-04T01:14:23;5.50;99.90
42365;DHT22;28498;54.400;18.566;2024-02-04T01:16:50;5.50;99.90
42365;DHT22;28498;54.400;18.566;2024-02-04T01:19:17;5.40;99.90
42365;DHT22;28498;54.400;18.566;2024-02-04T01:21:44;5.50;99.90
42365;DHT22;28498;54.400;18.566;2024-02-04T01:24:11;5.50;99.90
42365;DHT22;28498;54.400;18.566;2024-02-04T01:26:39;5.50;99.90
42365;DHT22;28498;54.400;18.566;2024-02-04T01:29:05;5.50;99.90
42365;DHT22;28498;54.400;18.566;2024-02-04T01:31:33;5.50;99.90
42365;DHT22;28498;54.400;18.566;2024-02-04T01:33:59;5.50;99.90
42365;DHT22;28498;54.400;18.566;2024-02-04T01:36:27;5.50;99.90
42365;DHT22;28498;54.400;18.566;2024-02-04T01:38:54;5.50;99.90
42365;DHT22;28498;54.400;18.566;2024-02-04T01:41:21;5.50;99.90
42365;DHT22;28498;54.400;18.566;2024-02-04T01:43:48;5.50;99.90
42365;DHT22;28498;54.400;18.566;2024-02-04T01:46:15;5.50;99.90
42365;DHT22;28498;54.400;18.566;2024-02-04T01:48:42;5.40;99.90
42365;DHT22;28498;54.400;18.566;2024-02-04T01:51:10;5.50;99.90
42365;DHT22;28498;54.400;18.566;2024-02-04T01:53:38;5.50;99.90
42365;DHT22;28498;54.400;18.566;2024-02-04T01:56:06;5.50;99.90
42365;DHT22;28498;54.400;18.566;2024-02-04T01:58:34;5.40;99.90
42365;DHT22;28498;54.400;18.566;2024-02-04T02:01:01;5.40;99.90
42365;DHT22;28498;54.400;18.566;2024-02-04T02:03:31;5.40;99.90
42365;DHT22;28498;54.400;18.566;2024-02-04T02:05:59;5.30;99.90
42365;DHT22;28498;54.400;18.566;2024-02-04T02:08:26;5.30;99.90
42365;DHT22;28498;54.400;18.566;2024-02-04T02:11:01;5.30;99.90
42365;DHT22;28498;54.400;18.566;2024-02-04T02:13:31;5.40;99.90
42365;DHT22;28498;54.400;18.566;2024-02-04T02:16:08;5.30;99.90
42365;DHT22;28498;54.400;18.566;2024-02-04T02:18:41;5.30;99.90
42365;DHT22;28498;54.400;18.566;2024-02-04T02:26:24;5.30;99.90
42365;DHT22;28498;54.400;18.566;2024-02-04T02:28:52;5.30;99.90
42365;DHT22;28498;54.400;18.566;2024-02-04T02:31:19;5.30;99.90
42365;DHT22;28498;54.400;18.566;2024-02-04T02:34:00;5.30;99.90
42365;DHT22;28498;54.400;18.566;2024-02-04T02:36:30;5.40;99.90
42365;DHT22;28498;54.400;18.566;2024-02-04T02:39:20;5.30;99.90
42365;DHT22;28498;54.400;18.566;2024-02-04T02:41:50;5.40;99.90
42365;DHT22;28498;54.400;18.566;2024-02-04T02:44:18;5.40;99.90
42365;DHT22;28498;54.400;18.566;2024-02-04T02:46:46;5.30;99.90
42365;DHT22;28498;54.400;18.566;2024-02-04T02:49:14;5.40;99.90
42365;DHT22;28498;54.400;18.566;2024-02-04T02:51:41;5.40;99.90
42365;DHT22;28498;54.400;18.566;2024-02-04T02:54:08;5.40;99.90
42365;DHT22;28498;54.400;18.566;2024-02-04T02:56:35;5.40;99.90
42365;DHT22;28498;54.400;18.566;2024-02-04T02:59:02;5.40;99.90
42365;DHT22;28498;54.400;18.566;2024-02-04T03:01:30;5.50;99.90
42365;DHT22;28498;54.400;18.566;2024-02-04T03:03:58;5.50;99.90
42365;DHT22;28498;54.400;18.566;2024-02-04T03:06:25;5.50;99.90
42365;DHT22;28498;54.400;18.566;2024-02-04T03:08:52;5.50;99.90
42365;DHT22;28498;54.400;18.566;2024-02-04T03:11:19;5.50;99.90
42365;DHT22;28498;54.400;18.566;2024-02-04T03:13:46;5.40;99.90
42365;DHT22;28498;54.400;18.566;2024-02-04T03:16:13;5.50;99.90
42365;DHT22;28498;54.400;18.566;2024-02-04T03:18:41;5.40;99.90
42365;DHT22;28498;54.400;18.566;2024-02-04T03:21:17;5.40;99.90
42365;DHT22;28498;54.400;18.566;2024-02-04T03:23:44;5.40;99.90
42365;DHT22;28498;54.400;18.566;2024-02-04T03:26:11;5.40;99.90
42365;DHT22;28498;54.400;18.566;2024-02-04T03:28:43;5.30;99.90
42365;DHT22;28498;54.400;18.566;2024-02-04T03:31:09;5.30;99.90
42365;DHT22;28498;54.400;18.566;2024-02-04T03:33:37;5.30;99.90
42365;DHT22;28498;54.400;18.566;2024-02-04T03:36:04;5.40;99.90
42365;DHT22;28498;54.400;18.566;2024-02-04T03:38:31;5.30;99.90
42365;DHT22;28498;54.400;18.566;2024-02-04T03:40:58;5.40;99.90
42365;DHT22;28498;54.400;18.566;2024-02-04T03:43:25;5.30;99.90
42365;DHT22;28498;54.400;18.566;2024-02-04T03:45:52;5.30;99.90
42365;DHT22;28498;54.400;18.566;2024-02-04T03:48:19;5.40;99.90
42365;DHT22;28498;54.400;18.566;2024-02-04T03:50:46;5.40;99.90
42365;DHT22;28498;54.400;18.566;2024-02-04T03:53:13;5.40;99.90
42365;DHT22;28498;54.400;18.566;2024-02-04T03:55:40;5.40;99.90
42365;DHT22;28498;54.400;18.566;2024-02-04T03:58:07;5.40;99.90
42365;DHT22;28498;54.400;18.566;2024-02-04T04:00:34;5.40;99.90
42365;DHT22;28498;54.400;18.566;2024-02-04T04:03:02;5.40;99.90
42365;DHT22;28498;54.400;18.566;2024-02-04T04:05:29;5.40;99.90
42365;DHT22;28498;54.400;18.566;2024-02-04T04:07:56;5.40;99.90
42365;DHT22;28498;54.400;18.566;2024-02-04T04:10:23;5.40;99.90
42365;DHT22;28498;54.400;18.566;2024-02-04T04:12:50;5.40;99.90
42365;DHT22;28498;54.400;18.566;2024-02-04T04:15:17;5.40;99.90
42365;DHT22;28498;54.400;18.566;2024-02-04T04:17:44;5.40;99.90
42365;DHT22;28498;54.400;18.566;2024-02-04T04:20:11;5.40;99.90
42365;DHT22;28498;54.400;18.566;2024-02-04T04:22:41;5.30;99.90
42365;DHT22;28498;54.400;18.566;2024-02-04T04:25:09;5.30;99.90
42365;DHT22;28498;54.400;18.566;2024-02-04T04:27:36;5.30;99.90
42365;DHT22;28498;54.400;18.566;2024-02-04T04:30:03;5.30;99.90
42365;DHT22;28498;54.400;18.566;2024-02-04T04:32:31;5.30;99.90
42365;DHT22;28498;54.400;18.566;2024-02-04T04:34:59;5.30;99.90
42365;DHT22;28498;54.400;18.566;2024-02-04T04:37:26;5.40;99.90
42365;DHT22;28498;54.400;18.566;2024-02-04T04:39:53;5.40;99.90
42365;DHT22;28498;54.400;18.566;2024-02-04T04:42:20;5.40;99.90
42365;DHT22;28498;54.400;18.566;2024-02-04T04:44:47;5.30;99.90
42365;DHT22;28498;54.400;18.566;2024-02-04T04:47:15;5.40;99.90
42365;DHT22;28498;54.400;18.566;2024-02-04T04:49:42;5.30;99.90
42365;DHT22;28498;54.400;18.566;2024-02-04T04:52:09;5.40;99.90
42365;DHT22;28498;54.400;18.566;2024-02-04T04:54:36;5.40;99.90
42365;DHT22;28498;54.400;18.566;2024-02-04T04:57:03;5.40;99.90
42365;DHT22;28498;54.400;18.566;2024-02-04T04:59:30;5.40;99.90
42365;DHT22;28498;54.400;18.566;2024-02-04T05:01:57;5.40;99.90
42365;DHT22;28498;54.400;18.566;2024-02-04T05:04:24;5.40;99.90
42365;DHT22;28498;54.400;18.566;2024-02-04T05:06:52;5.40;99.90
42365;DHT22;28498;54.400;18.566;2024-02-04T05:09:19;5.40;99.90
42365;DHT22;28498;54.400;18.566;2024-02-04T05:11:46;5.40;99.90
42365;DHT22;28498;54.400;18.566;2024-02-04T05:14:13;5.40;99.90
42365;DHT22;28498;54.400;18.566;2024-02-04T05:16:40;5.40;99.90
42365;DHT22;28498;54.400;18.566;2024-02-04T05:19:07;5.50;99.90
42365;DHT22;28498;54.400;18.566;2024-02-04T05:21:40;5.40;99.90
42365;DHT22;28498;54.400;18.566;2024-02-04T05:24:07;5.50;99.90
42365;DHT22;28498;54.400;18.566;2024-02-04T05:26:34;5.40;99.90
42365;DHT22;28498;54.400;18.566;2024-02-04T05:29:01;5.40;99.90
42365;DHT22;28498;54.400;18.566;2024-02-04T05:31:28;5.40;99.90
42365;DHT22;28498;54.400;18.566;2024-02-04T05:33:56;5.40;99.90
42365;DHT22;28498;54.400;18.566;2024-02-04T05:36:23;5.40;99.90
42365;DHT22;28498;54.400;18.566;2024-02-04T05:38:50;5.50;99.90
42365;DHT22;28498;54.400;18.566;2024-02-04T05:41:17;5.40;99.90
42365;DHT22;28498;54.400;18.566;2024-02-04T05:43:44;5.40;99.90
42365;DHT22;28498;54.400;18.566;2024-02-04T05:46:13;5.40;99.90
42365;DHT22;28498;54.400;18.566;2024-02-04T05:48:41;5.40;99.90
42365;DHT22;28498;54.400;18.566;2024-02-04T05:51:11;5.40;99.90
42365;DHT22;28498;54.400;18.566;2024-02-04T05:53:38;5.50;99.90
42365;DHT22;28498;54.400;18.566;2024-02-04T05:56:05;5.40;99.90
42365;DHT22;28498;54.400;18.566;2024-02-04T05:58:32;5.40;99.90
42365;DHT22;28498;54.400;18.566;2024-02-04T06:00:59;5.40;99.90
42365;DHT22;28498;54.400;18.566;2024-02-04T06:03:26;5.40;99.90
42365;DHT22;28498;54.400;18.566;2024-02-04T06:05:56;5.40;99.90
42365;DHT22;28498;54.400;18.566;2024-02-04T06:08:23;5.50;99.90
42365;DHT22;28498;54.400;18.566;2024-02-04T06:10:50;5.50;99.90
42365;DHT22;28498;54.400;18.566;2024-02-04T06:13:18;5.50;99.90
42365;DHT22;28498;54.400;18.566;2024-02-04T06:15:45;5.50;99.90
42365;DHT22;28498;54.400;18.566;2024-02-04T06:18:12;5.50;99.90
42365;DHT22;28498;54.400;18.566;2024-02-04T06:20:39;5.60;99.90
42365;DHT22;28498;54.400;18.566;2024-02-04T06:23:06;5.50;99.90
42365;DHT22;28498;54.400;18.566;2024-02-04T06:25:33;5.50;99.90
42365;DHT22;28498;54.400;18.566;2024-02-04T06:28:00;5.50;99.90
42365;DHT22;28498;54.400;18.566;2024-02-04T06:30:27;5.50;99.90
42365;DHT22;28498;54.400;18.566;2024-02-04T06:32:54;5.50;99.90
42365;DHT22;28498;54.400;18.566;2024-02-04T06:35:23;5.50;99.90
42365;DHT22;28498;54.400;18.566;2024-02-04T06:37:50;5.60;99.90
42365;DHT22;28498;54.400;18.566;2024-02-04T06:40:17;5.50;99.90
42365;DHT22;28498;54.400;18.566;2024-02-04T06:42:44;5.40;99.90
42365;DHT22;28498;54.400;18.566;2024-02-04T06:45:11;5.20;99.90
42365;DHT22;28498;54.400;18.566;2024-02-04T06:47:38;5.10;99.90
42365;DHT22;28498;54.400;18.566;2024-02-04T06:50:07;4.90;99.90
42365;DHT22;28498;54.400;18.566;2024-02-04T06:52:35;4.90;99.90
42365;DHT22;28498;54.400;18.566;2024-02-04T06:55:02;4.80;99.90
42365;DHT22;28498;54.400;18.566;2024-02-04T06:57:30;4.70;99.90
42365;DHT22;28498;54.400;18.566;2024-02-04T06:59:57;4.80;99.90
42365;DHT22;28498;54.400;18.566;2024-02-04T07:02:24;4.90;99.90
42365;DHT22;28498;54.400;18.566;2024-02-04T07:04:51;4.80;99.90
42365;DHT22;28498;54.400;18.566;2024-02-04T07:07:20;4.80;99.90
42365;DHT22;28498;54.400;18.566;2024-02-04T07:09:47;4.80;99.90
42365;DHT22;28498;54.400;18.566;2024-02-04T07:12:14;4.70;99.90
42365;DHT22;28498;54.400;18.566;2024-02-04T07:14:41;4.60;99.90
42365;DHT22;28498;54.400;18.566;2024-02-04T07:17:08;4.50;99.90
42365;DHT22;28498;54.400;18.566;2024-02-04T07:19:35;4.50;99.90
42365;DHT22;28498;54.400;18.566;2024-02-04T07:22:03;4.50;99.90
42365;DHT22;28498;54.400;18.566;2024-02-04T07:24:30;4.50;99.90
42365;DHT22;28498;54.400;18.566;2024-02-04T07:26:57;4.40;99.90
42365;DHT22;28498;54.400;18.566;2024-02-04T07:29:24;4.30;99.90
42365;DHT22;28498;54.400;18.566;2024-02-04T07:31:51;4.40;99.90
42365;DHT22;28498;54.400;18.566;2024-02-04T07:34:18;4.40;99.90
42365;DHT22;28498;54.400;18.566;2024-02-04T07:36:46;4.30;99.90
42365;DHT22;28498;54.400;18.566;2024-02-04T07:39:13;4.30;99.90
42365;DHT22;28498;54.400;18.566;2024-02-04T07:41:40;4.30;99.90
42365;DHT22;28498;54.400;18.566;2024-02-04T07:44:07;4.40;99.90
42365;DHT22;28498;54.400;18.566;2024-02-04T07:46:34;4.30;99.90
42365;DHT22;28498;54.400;18.566;2024-02-04T07:49:01;4.40;99.90
42365;DHT22;28498;54.400;18.566;2024-02-04T07:51:28;4.30;99.90
42365;DHT22;28498;54.400;18.566;2024-02-04T07:53:55;4.40;99.90
42365;DHT22;28498;54.400;18.566;2024-02-04T07:56:22;4.40;99.90
42365;DHT22;28498;54.400;18.566;2024-02-04T07:58:49;4.50;99.90
42365;DHT22;28498;54.400;18.566;2024-02-04T08:01:18;4.40;99.90
42365;DHT22;28498;54.400;18.566;2024-02-04T08:03:45;4.40;99.90
42365;DHT22;28498;54.400;18.566;2024-02-04T08:06:14;4.40;99.90
42365;DHT22;28498;54.400;18.566;2024-02-04T08:08:41;4.40;99.90
42365;DHT22;28498;54.400;18.566;2024-02-04T08:11:09;4.40;99.90
42365;DHT22;28498;54.400;18.566;2024-02-04T08:13:36;4.50;99.90
42365;DHT22;28498;54.400;18.566;2024-02-04T08:16:03;4.40;99.90
42365;DHT22;28498;54.400;18.566;2024-02-04T08:18:30;4.30;99.90
42365;DHT22;28498;54.400;18.566;2024-02-04T08:20:57;4.30;99.90
42365;DHT22;28498;54.400;18.566;2024-02-04T08:23:24;4.40;99.90
42365;DHT22;28498;54.400;18.566;2024-02-04T08:25:51;4.40;99.90
42365;DHT22;28498;54.400;18.566;2024-02-04T08:28:18;4.40;99.90
42365;DHT22;28498;54.400;18.566;2024-02-04T08:30:45;4.40;99.90
42365;DHT22;28498;54.400;18.566;2024-02-04T08:33:13;4.40;99.90
42365;DHT22;28498;54.400;18.566;2024-02-04T08:39:27;4.40;99.90
42365;DHT22;28498;54.400;18.566;2024-02-04T08:41:54;4.40;99.90
42365;DHT22;28498;54.400;18.566;2024-02-04T08:44:21;4.40;99.90
42365;DHT22;28498;54.400;18.566;2024-02-04T08:47:04;4.40;99.90
42365;DHT22;28498;54.400;18.566;2024-02-04T08:49:31;4.40;99.90
42365;DHT22;28498;54.400;18.566;2024-02-04T08:51:58;4.40;99.90
42365;DHT22;28498;54.400;18.566;2024-02-04T08:54:25;4.30;99.90
42365;DHT22;28498;54.400;18.566;2024-02-04T08:56:53;4.30;99.90
42365;DHT22;28498;54.400;18.566;2024-02-04T09:03:07;4.30;99.90
42365;DHT22;28498;54.400;18.566;2024-02-04T09:05:34;4.30;99.90
42365;DHT22;28498;54.400;18.566;2024-02-04T09:08:01;4.30;99.90
42365;DHT22;28498;54.400;18.566;2024-02-04T09:10:28;4.40;99.90
42365;DHT22;28498;54.400;18.566;2024-02-04T09:12:55;4.30;99.90
42365;DHT22;28498;54.400;18.566;2024-02-04T09:15:22;4.30;99.90
42365;DHT22;28498;54.400;18.566;2024-02-04T09:17:49;4.30;99.90
42365;DHT22;28498;54.400;18.566;2024-02-04T09:20:16;4.40;99.90
42365;DHT22;28498;54.400;18.566;2024-02-04T09:22:44;4.40;99.90
42365;DHT22;28498;54.400;18.566;2024-02-04T09:25:11;4.40;99.90
42365;DHT22;28498;54.400;18.566;2024-02-04T09:27:39;4.50;99.90
42365;DHT22;28498;54.400;18.566;2024-02-04T09:30:06;4.60;99.90
42365;DHT22;28498;54.400;18.566;2024-02-04T09:32:33;4.80;99.90
42365;DHT22;28498;54.400;18.566;2024-02-04T09:35:01;4.70;99.90
42365;DHT22;28498;54.400;18.566;2024-02-04T09:41:16;4.70;99.90
42365;DHT22;28498;54.400;18.566;2024-02-04T09:43:53;4.70;99.90
42365;DHT22;28498;54.400;18.566;2024-02-04T09:46:21;4.80;99.90
42365;DHT22;28498;54.400;18.566;2024-02-04T09:52:42;4.80;99.90
42365;DHT22;28498;54.400;18.566;2024-02-04T09:55:26;4.80;99.90
42365;DHT22;28498;54.400;18.566;2024-02-04T09:57:56;4.80;99.90
42365;DHT22;28498;54.400;18.566;2024-02-04T10:00:23;4.80;99.90
42365;DHT22;28498;54.400;18.566;2024-02-04T10:06:41;4.80;99.90
42365;DHT22;28498;54.400;18.566;2024-02-04T10:09:08;4.80;99.90
42365;DHT22;28498;54.400;18.566;2024-02-04T10:11:36;4.80;99.90
42365;DHT22;28498;54.400;18.566;2024-02-04T10:14:03;4.80;99.90
42365;DHT22;28498;54.400;18.566;2024-02-04T10:16:30;4.80;99.90
42365;DHT22;28498;54.400;18.566;2024-02-04T10:18:57;4.80;99.90
42365;DHT22;28498;54.400;18.566;2024-02-04T10:21:25;4.80;99.90
42365;DHT22;28498;54.400;18.566;2024-02-04T10:23:52;4.70;99.90
42365;DHT22;28498;54.400;18.566;2024-02-04T10:26:19;4.70;99.90
42365;DHT22;28498;54.400;18.566;2024-02-04T10:28:49;4.70;99.90
42365;DHT22;28498;54.400;18.566;2024-02-04T10:31:16;4.70;99.90
42365;DHT22;28498;54.400;18.566;2024-02-04T10:33:43;4.70;99.90
42365;DHT22;28498;54.400;18.566;2024-02-04T10:36:11;4.70;99.90
42365;DHT22;28498;54.400;18.566;2024-02-04T10:38:38;4.70;99.90
42365;DHT22;28498;54.400;18.566;2024-02-04T10:41:06;4.70;99.90
42365;DHT22;28498;54.400;18.566;2024-02-04T10:43:34;4.70;99.90
42365;DHT22;28498;54.400;18.566;2024-02-04T10:46:18;4.70;99.90
42365;DHT22;28498;54.400;18.566;2024-02-04T10:48:55;4.70;99.90
42365;DHT22;28498;54.400;18.566;2024-02-04T10:51:25;4.60;99.90
42365;DHT22;28498;54.400;18.566;2024-02-04T10:53:58;4.60;99.90
42365;DHT22;28498;54.400;18.566;2024-02-04T10:56:34;4.60;99.90
42365;DHT22;28498;54.400;18.566;2024-02-04T10:59:03;4.60;99.90
42365;DHT22;28498;54.400;18.566;2024-02-04T11:01:32;4.60;99.90
42365;DHT22;28498;54.400;18.566;2024-02-04T11:07:41;4.60;99.90
42365;DHT22;28498;54.400;18.566;2024-02-04T11:10:10;4.60;99.90
42365;DHT22;28498;54.400;18.566;2024-02-04T11:12:40;4.60;99.90
42365;DHT22;28498;54.400;18.566;2024-02-04T11:15:10;4.70;99.90
42365;DHT22;28498;54.400;18.566;2024-02-04T11:24:22;4.70;99.90
42365;DHT22;28498;54.400;18.566;2024-02-04T11:26:43;4.70;99.90
42365;DHT22;28498;54.400;18.566;2024-02-04T11:29:10;4.80;99.90
42365;DHT22;28498;54.400;18.566;2024-02-04T11:31:39;4.80;99.90
42365;DHT22;28498;54.400;18.566;2024-02-04T11:37:56;4.80;99.90
42365;DHT22;28498;54.400;18.566;2024-02-04T11:40:36;4.80;99.90
42365;DHT22;28498;54.400;18.566;2024-02-04T11:43:10;4.80;99.90
42365;DHT22;28498;54.400;18.566;2024-02-04T11:45:43;4.80;99.90
42365;DHT22;28498;54.400;18.566;2024-02-04T11:48:12;4.90;99.90
42365;DHT22;28498;54.400;18.566;2024-02-04T11:50:52;4.80;99.90
42365;DHT22;28498;54.400;18.566;2024-02-04T11:53:21;4.80;99.90
42365;DHT22;28498;54.400;18.566;2024-02-04T11:55:48;4.80;99.90
42365;DHT22;28498;54.400;18.566;2024-02-04T11:58:19;4.80;99.90
42365;DHT22;28498;54.400;18.566;2024-02-04T12:00:46;4.80;99.90
42365;DHT22;28498;54.400;18.566;2024-02-04T12:03:16;4.80;99.90
42365;DHT22;28498;54.400;18.566;2024-02-04T12:05:43;4.80;99.90
42365;DHT22;28498;54.400;18.566;2024-02-04T12:08:12;4.80;99.90
42365;DHT22;28498;54.400;18.566;2024-02-04T12:10:40;4.80;99.90
42365;DHT22;28498;54.400;18.566;2024-02-04T12:13:07;4.80;99.90
42365;DHT22;28498;54.400;18.566;2024-02-04T12:15:35;4.70;99.90
42365;DHT22;28498;54.400;18.566;2024-02-04T12:18:09;4.70;99.90
42365;DHT22;28498;54.400;18.566;2024-02-04T12:20:37;4.70;99.90
42365;DHT22;28498;54.400;18.566;2024-02-04T12:23:05;4.70;99.90
42365;DHT22;28498;54.400;18.566;2024-02-04T12:25:34;4.70;99.90
42365;DHT22;28498;54.400;18.566;2024-02-04T12:28:02;4.70;99.90
42365;DHT22;28498;54.400;18.566;2024-02-04T12:30:31;4.70;99.90
42365;DHT22;28498;54.400;18.566;2024-02-04T12:32:59;4.80;99.90
42365;DHT22;28498;54.400;18.566;2024-02-04T12:35:27;4.80;99.90
42365;DHT22;28498;54.400;18.566;2024-02-04T12:37:57;4.80;99.90
42365;DHT22;28498;54.400;18.566;2024-02-04T12:40:25;4.80;99.90
42365;DHT22;28498;54.400;18.566;2024-02-04T12:42:57;4.90;99.90
42365;DHT22;28498;54.400;18.566;2024-02-04T12:45:29;4.90;99.90
42365;DHT22;28498;54.400;18.566;2024-02-04T12:47:58;4.80;99.90
42365;DHT22;28498;54.400;18.566;2024-02-04T12:50:25;4.90;99.90
42365;DHT22;28498;54.400;18.566;2024-02-04T12:53:04;5.00;99.90
42365;DHT22;28498;54.400;18.566;2024-02-04T12:55:33;4.80;99.90
42365;DHT22;28498;54.400;18.566;2024-02-04T12:58:13;4.80;99.90
42365;DHT22;28498;54.400;18.566;2024-02-04T13:00:44;4.80;99.90
42365;DHT22;28498;54.400;18.566;2024-02-04T13:03:15;4.80;99.90
42365;DHT22;28498;54.400;18.566;2024-02-04T13:05:43;4.80;99.90
42365;DHT22;28498;54.400;18.566;2024-02-04T13:08:10;4.80;99.90
42365;DHT22;28498;54.400;18.566;2024-02-04T13:10:37;4.80;99.90
42365;DHT22;28498;54.400;18.566;2024-02-04T13:13:09;4.90;99.90
42365;DHT22;28498;54.400;18.566;2024-02-04T13:15:39;4.90;99.90
42365;DHT22;28498;54.400;18.566;2024-02-04T13:18:07;4.90;99.90
42365;DHT22;28498;54.400;18.566;2024-02-04T13:20:35;4.90;99.90
42365;DHT22;28498;54.400;18.566;2024-02-04T13:23:02;4.80;99.90
42365;DHT22;28498;54.400;18.566;2024-02-04T13:25:32;4.90;99.90
42365;DHT22;28498;54.400;18.566;2024-02-04T13:28:00;4.80;99.90
42365;DHT22;28498;54.400;18.566;2024-02-04T13:30:28;4.80;99.90
42365;DHT22;28498;54.400;18.566;2024-02-04T13:32:56;4.80;99.90
42365;DHT22;28498;54.400;18.566;2024-02-04T13:35:24;4.80;99.90
42365;DHT22;28498;54.400;18.566;2024-02-04T13:40:37;4.80;99.90
42365;DHT22;28498;54.400;18.566;2024-02-04T13:43:04;4.80;99.90
42365;DHT22;28498;54.400;18.566;2024-02-04T13:45:31;4.80;99.90
42365;DHT22;28498;54.400;18.566;2024-02-04T13:47:58;4.80;99.90
42365;DHT22;28498;54.400;18.566;2024-02-04T13:50:25;4.90;99.90
42365;DHT22;28498;54.400;18.566;2024-02-04T13:52:52;4.80;99.90
42365;DHT22;28498;54.400;18.566;2024-02-04T13:55:19;4.90;99.90
42365;DHT22;28498;54.400;18.566;2024-02-04T13:57:46;4.80;99.90
42365;DHT22;28498;54.400;18.566;2024-02-04T14:00:14;4.90;99.90
42365;DHT22;28498;54.400;18.566;2024-02-04T14:02:41;5.00;99.90
42365;DHT22;28498;54.400;18.566;2024-02-04T14:05:08;5.00;99.90
42365;DHT22;28498;54.400;18.566;2024-02-04T14:07:36;5.10;99.90
42365;DHT22;28498;54.400;18.566;2024-02-04T14:10:03;5.00;99.90
42365;DHT22;28498;54.400;18.566;2024-02-04T14:12:31;5.00;99.90
42365;DHT22;28498;54.400;18.566;2024-02-04T14:14:58;5.00;99.90
42365;DHT22;28498;54.400;18.566;2024-02-04T14:17:25;4.90;99.90
42365;DHT22;28498;54.400;18.566;2024-02-04T14:19:53;5.00;99.90
42365;DHT22;28498;54.400;18.566;2024-02-04T14:22:20;5.20;99.90
42365;DHT22;28498;54.400;18.566;2024-02-04T14:28:37;5.10;99.90
42365;DHT22;28498;54.400;18.566;2024-02-04T14:34:55;5.00;99.90
42365;DHT22;28498;54.400;18.566;2024-02-04T14:37:23;5.00;99.90
42365;DHT22;28498;54.400;18.566;2024-02-04T14:39:50;5.00;99.90
42365;DHT22;28498;54.400;18.566;2024-02-04T14:42:18;4.90;99.90
42365;DHT22;28498;54.400;18.566;2024-02-04T14:44:48;5.00;99.90
42365;DHT22;28498;54.400;18.566;2024-02-04T14:47:15;5.00;99.90
42365;DHT22;28498;54.400;18.566;2024-02-04T14:49:42;5.00;99.90
42365;DHT22;28498;54.400;18.566;2024-02-04T14:52:09;5.10;99.90
42365;DHT22;28498;54.400;18.566;2024-02-04T14:54:36;5.00;99.90
42365;DHT22;28498;54.400;18.566;2024-02-04T14:57:05;5.20;99.90
42365;DHT22;28498;54.400;18.566;2024-02-04T14:59:32;5.10;99.90
42365;DHT22;28498;54.400;18.566;2024-02-04T15:02:04;5.00;99.90
42365;DHT22;28498;54.400;18.566;2024-02-04T15:04:32;5.10;99.90
42365;DHT22;28498;54.400;18.566;2024-02-04T15:06:59;5.00;99.90
42365;DHT22;28498;54.400;18.566;2024-02-04T15:09:33;5.10;99.90
42365;DHT22;28498;54.400;18.566;2024-02-04T15:12:01;5.00;99.90
42365;DHT22;28498;54.400;18.566;2024-02-04T15:14:29;5.00;99.90
42365;DHT22;28498;54.400;18.566;2024-02-04T15:16:57;5.10;99.90
42365;DHT22;28498;54.400;18.566;2024-02-04T15:19:25;5.10;99.90
42365;DHT22;28498;54.400;18.566;2024-02-04T15:21:55;5.20;99.90
42365;DHT22;28498;54.400;18.566;2024-02-04T15:24:22;5.20;99.90
42365;DHT22;28498;54.400;18.566;2024-02-04T15:26:52;5.10;99.90
42365;DHT22;28498;54.400;18.566;2024-02-04T15:29:19;5.10;99.90
42365;DHT22;28498;54.400;18.566;2024-02-04T15:31:47;5.00;99.90
42365;DHT22;28498;54.400;18.566;2024-02-04T15:34:16;5.10;99.90
42365;DHT22;28498;54.400;18.566;2024-02-04T15:36:45;5.20;99.90
42365;DHT22;28498;54.400;18.566;2024-02-04T15:39:12;5.10;99.90
42365;DHT22;28498;54.400;18.566;2024-02-04T15:41:39;5.30;99.90
42365;DHT22;28498;54.400;18.566;2024-02-04T15:44:06;5.30;99.90
42365;DHT22;28498;54.400;18.566;2024-02-04T15:46:35;5.30;99.90
42365;DHT22;28498;54.400;18.566;2024-02-04T15:49:03;5.40;99.90
42365;DHT22;28498;54.400;18.566;2024-02-04T15:51:37;5.30;99.90
42365;DHT22;28498;54.400;18.566;2024-02-04T15:54:04;5.20;99.90
42365;DHT22;28498;54.400;18.566;2024-02-04T15:56:41;5.20;99.90
42365;DHT22;28498;54.400;18.566;2024-02-04T15:59:13;5.10;99.90
42365;DHT22;28498;54.400;18.566;2024-02-04T16:01:40;5.10;99.90
42365;DHT22;28498;54.400;18.566;2024-02-04T16:04:08;5.10;99.90
42365;DHT22;28498;54.400;18.566;2024-02-04T16:06:36;5.10;99.90
42365;DHT22;28498;54.400;18.566;2024-02-04T16:09:04;5.20;99.90
42365;DHT22;28498;54.400;18.566;2024-02-04T16:11:56;5.00;99.90
42365;DHT22;28498;54.400;18.566;2024-02-04T16:14:26;5.20;99.90
42365;DHT22;28498;54.400;18.566;2024-02-04T16:17:02;5.30;99.90
42365;DHT22;28498;54.400;18.566;2024-02-04T16:19:32;5.40;99.90
42365;DHT22;28498;54.400;18.566;2024-02-04T16:21:59;5.20;99.90
42365;DHT22;28498;54.400;18.566;2024-02-04T16:24:26;5.20;99.90